sensor_id;sensor_type;location;lat;lon;timestamp;pressure;altitude;pressure_sealevel;temperature;humidity
56681;BME280;42558;52.388;13.390;2023-02-19T00:01:32;100973.14;;;4.52;100.00
56681;BME280;42558;52.388;13.390;2023-02-19T00:04:11;100975.33;;;4.50;100.00
56681;BME280;42558;52.388;13.390;2023-02-19T00:06:44;100978.48;;;4.50;100.00
56681;BME280;42558;52.388;13.390;2023-02-19T00:09:16;100972.40;;;4.46;100.00
56681;BME280;42558;52.388;13.390;2023-02-19T00:11:47;100971.96;;;4.44;100.00
56681;BME280;42558;52.388;13.390;2023-02-19T00:14:20;100974.23;;;4.45;100.00
56681;BME280;42558;52.388;13.390;2023-02-19T00:16:50;100974.41;;;4.45;100.00
56681;BME280;42558;52.388;13.390;2023-02-19T00:19:20;100970.79;;;4.42;100.00
56681;BME280;42558;52.388;13.390;2023-02-19T00:21:51;100972.18;;;4.42;100.00
56681;BME280;42558;52.388;13.390;2023-02-19T00:24:21;100970.34;;;4.39;100.00
56681;BME280;42558;52.388;13.390;2023-02-19T00:26:51;100967.70;;;4.38;100.00
56681;BME280;42558;52.388;13.390;2023-02-19T00:29:21;100962.13;;;4.38;100.00
56681;BME280;42558;52.388;13.390;2023-02-19T00:31:51;100956.56;;;4.38;100.00
56681;BME280;42558;52.388;13.390;2023-02-19T00:34:21;100957.60;;;4.38;100.00
56681;BME280;42558;52.388;13.390;2023-02-19T00:36:51;100958.79;;;4.37;100.00
56681;BME280;42558;52.388;13.390;2023-02-19T00:39:20;100957.02;;;4.36;100.00
56681;BME280;42558;52.388;13.390;2023-02-19T00:41:50;100951.58;;;4.35;100.00
56681;BME280;42558;52.388;13.390;2023-02-19T00:44:20;100950.18;;;4.35;100.00
56681;BME280;42558;52.388;13.390;2023-02-19T00:46:50;100950.03;;;4.36;100.00
56681;BME280;42558;52.388;13.390;2023-02-19T00:49:22;100956.27;;;4.35;100.00
56681;BME280;42558;52.388;13.390;2023-02-19T00:51:52;100957.70;;;4.36;100.00
56681;BME280;42558;52.388;13.390;2023-02-19T00:54:23;100957.36;;;4.36;100.00
56681;BME280;42558;52.388;13.390;2023-02-19T00:56:52;100956.83;;;4.36;100.00
56681;BME280;42558;52.388;13.390;2023-02-19T00:59:22;100946.02;;;4.36;100.00
56681;BME280;42558;52.388;13.390;2023-02-19T01:01:52;100943.70;;;4.35;100.00
56681;BME280;42558;52.388;13.390;2023-02-19T01:04:22;100941.63;;;4.35;100.00
56681;BME280;42558;52.388;13.390;2023-02-19T01:06:50;100938.19;;;4.36;100.00
56681;BME280;42558;52.388;13.390;2023-02-19T01:09:19;100935.73;;;4.35;100.00
56681;BME280;42558;52.388;13.390;2023-02-19T01:11:47;100940.41;;;4.35;100.00
56681;BME280;42558;52.388;13.390;2023-02-19T01:14:16;100934.44;;;4.34;100.00
56681;BME280;42558;52.388;13.390;2023-02-19T01:16:44;100932.15;;;4.33;100.00
56681;BME280;42558;52.388;13.390;2023-02-19T01:19:12;100926.44;;;4.34;100.00
56681;BME280;42558;52.388;13.390;2023-02-19T01:21:41;100920.98;;;4.32;100.00
56681;BME280;42558;52.388;13.390;2023-02-19T01:24:10;100909.67;;;4.33;100.00
56681;BME280;42558;52.388;13.390;2023-02-19T01:26:38;100898.98;;;4.31;100.00
56681;BME280;42558;52.388;13.390;2023-02-19T01:29:06;100890.45;;;4.31;100.00
56681;BME280;42558;52.388;13.390;2023-02-19T01:31:35;100875.55;;;4.32;100.00
56681;BME280;42558;52.388;13.390;2023-02-19T01:34:03;100865.10;;;4.32;100.00
56681;BME280;42558;52.388;13.390;2023-02-19T01:36:33;100877.20;;;4.34;100.00
56681;BME280;42558;52.388;13.390;2023-02-19T01:39:01;100889.83;;;4.32;100.00
56681;BME280;42558;52.388;13.390;2023-02-19T01:41:36;100889.42;;;4.31;100.00
56681;BME280;42558;52.388;13.390;2023-02-19T01:46:56;100877.48;;;4.32;100.00
56681;BME280;42558;52.388;13.390;2023-02-19T01:49:32;100873.75;;;4.31;100.00
56681;BME280;42558;52.388;13.390;2023-02-19T01:52:31;100880.05;;;4.32;100.00
56681;BME280;42558;52.388;13.390;2023-02-19T01:55:06;100867.73;;;4.32;100.00
56681;BME280;42558;52.388;13.390;2023-02-19T01:57:45;100866.60;;;4.30;100.00
56681;BME280;42558;52.388;13.390;2023-02-19T02:00:16;100866.70;;;4.28;100.00
56681;BME280;42558;52.388;13.390;2023-02-19T02:02:50;100863.23;;;4.29;100.00
56681;BME280;42558;52.388;13.390;2023-02-19T02:08:26;100862.13;;;4.28;100.00
56681;BME280;42558;52.388;13.390;2023-02-19T02:11:13;100858.79;;;4.27;100.00
56681;BME280;42558;52.388;13.390;2023-02-19T02:13:42;100853.58;;;4.27;100.00
56681;BME280;42558;52.388;13.390;2023-02-19T02:22:51;100850.41;;;4.26;100.00
56681;BME280;42558;52.388;13.390;2023-02-19T02:30:54;100848.10;;;4.21;100.00
56681;BME280;42558;52.388;13.390;2023-02-19T02:36:18;100844.02;;;4.18;100.00
56681;BME280;42558;52.388;13.390;2023-02-19T02:38:51;100845.13;;;4.20;100.00
56681;BME280;42558;52.388;13.390;2023-02-19T02:41:23;100841.25;;;4.19;100.00
56681;BME280;42558;52.388;13.390;2023-02-19T02:43:54;100832.71;;;4.19;100.00
56681;BME280;42558;52.388;13.390;2023-02-19T02:46:34;100826.20;;;4.13;100.00
56681;BME280;42558;52.388;13.390;2023-02-19T02:49:21;100823.54;;;4.02;100.00
56681;BME280;42558;52.388;13.390;2023-02-19T02:51:54;100821.21;;;4.01;100.00
56681;BME280;42558;52.388;13.390;2023-02-19T02:54:32;100820.63;;;3.95;100.00
56681;BME280;42558;52.388;13.390;2023-02-19T02:57:21;100823.19;;;3.86;100.00
56681;BME280;42558;52.388;13.390;2023-02-19T02:59:51;100831.15;;;3.80;100.00
56681;BME280;42558;52.388;13.390;2023-02-19T03:02:26;100829.14;;;3.78;100.00
56681;BME280;42558;52.388;13.390;2023-02-19T03:05:10;100834.78;;;3.72;100.00
56681;BME280;42558;52.388;13.390;2023-02-19T03:11:06;100841.56;;;3.72;100.00
56681;BME280;42558;52.388;13.390;2023-02-19T03:14:06;100837.13;;;3.66;100.00
56681;BME280;42558;52.388;13.390;2023-02-19T03:17:21;100840.45;;;3.62;100.00
56681;BME280;42558;52.388;13.390;2023-02-19T03:20:15;100841.23;;;3.56;100.00
56681;BME280;42558;52.388;13.390;2023-02-19T03:22:49;100842.11;;;3.56;100.00
56681;BME280;42558;52.388;13.390;2023-02-19T03:25:27;100844.81;;;3.54;100.00
56681;BME280;42558;52.388;13.390;2023-02-19T03:28:22;100844.88;;;3.52;100.00
56681;BME280;42558;52.388;13.390;2023-02-19T03:31:18;100846.95;;;3.51;100.00
56681;BME280;42558;52.388;13.390;2023-02-19T03:33:57;100852.02;;;3.44;100.00
56681;BME280;42558;52.388;13.390;2023-02-19T03:36:38;100852.11;;;3.31;100.00
56681;BME280;42558;52.388;13.390;2023-02-19T03:39:14;100852.35;;;3.28;100.00
56681;BME280;42558;52.388;13.390;2023-02-19T03:42:07;100853.85;;;3.19;100.00
56681;BME280;42558;52.388;13.390;2023-02-19T03:45:13;100856.81;;;3.08;100.00
56681;BME280;42558;52.388;13.390;2023-02-19T03:50:58;100865.99;;;2.91;100.00
56681;BME280;42558;52.388;13.390;2023-02-19T03:54:01;100869.86;;;2.92;100.00
56681;BME280;42558;52.388;13.390;2023-02-19T04:02:04;100881.88;;;2.67;100.00
56681;BME280;42558;52.388;13.390;2023-02-19T04:04:44;100886.87;;;2.63;100.00
56681;BME280;42558;52.388;13.390;2023-02-19T04:07:19;100885.75;;;2.57;100.00
56681;BME280;42558;52.388;13.390;2023-02-19T04:09:50;100890.81;;;2.58;100.00
56681;BME280;42558;52.388;13.390;2023-02-19T04:12:19;100897.77;;;2.48;100.00
56681;BME280;42558;52.388;13.390;2023-02-19T04:15:06;100901.67;;;2.42;100.00
56681;BME280;42558;52.388;13.390;2023-02-19T04:17:46;100907.79;;;2.32;100.00
56681;BME280;42558;52.388;13.390;2023-02-19T04:20:18;100906.57;;;2.22;100.00
56681;BME280;42558;52.388;13.390;2023-02-19T04:22:48;100908.86;;;2.12;100.00
56681;BME280;42558;52.388;13.390;2023-02-19T04:25:19;100915.37;;;2.07;100.00
56681;BME280;42558;52.388;13.390;2023-02-19T04:27:50;100920.46;;;2.05;100.00
56681;BME280;42558;52.388;13.390;2023-02-19T04:30:20;100924.39;;;2.03;100.00
56681;BME280;42558;52.388;13.390;2023-02-19T04:32:51;100929.39;;;2.06;100.00
56681;BME280;42558;52.388;13.390;2023-02-19T04:35:19;100936.05;;;2.11;100.00
56681;BME280;42558;52.388;13.390;2023-02-19T04:37:48;100941.02;;;2.03;100.00
56681;BME280;42558;52.388;13.390;2023-02-19T04:40:16;100942.33;;;1.95;100.00
56681;BME280;42558;52.388;13.390;2023-02-19T04:42:44;100941.55;;;1.89;100.00
56681;BME280;42558;52.388;13.390;2023-02-19T04:45:13;100939.57;;;1.85;100.00
56681;BME280;42558;52.388;13.390;2023-02-19T04:47:41;100942.36;;;1.85;100.00
56681;BME280;42558;52.388;13.390;2023-02-19T04:50:10;100943.89;;;1.85;100.00
56681;BME280;42558;52.388;13.390;2023-02-19T04:52:38;100942.27;;;1.83;100.00
56681;BME280;42558;52.388;13.390;2023-02-19T04:55:07;100941.48;;;1.85;100.00
56681;BME280;42558;52.388;13.390;2023-02-19T04:57:35;100941.33;;;1.85;100.00
56681;BME280;42558;52.388;13.390;2023-02-19T05:00:04;100939.80;;;1.86;100.00
56681;BME280;42558;52.388;13.390;2023-02-19T05:02:32;100943.67;;;1.87;100.00
56681;BME280;42558;52.388;13.390;2023-02-19T05:05:00;100947.58;;;1.85;100.00
56681;BME280;42558;52.388;13.390;2023-02-19T05:07:28;100947.61;;;1.86;100.00
56681;BME280;42558;52.388;13.390;2023-02-19T05:09:57;100951.48;;;1.87;100.00
56681;BME280;42558;52.388;13.390;2023-02-19T05:12:25;100949.72;;;1.86;100.00
56681;BME280;42558;52.388;13.390;2023-02-19T05:14:54;100948.71;;;1.84;100.00
56681;BME280;42558;52.388;13.390;2023-02-19T05:17:22;100944.60;;;1.85;100.00
56681;BME280;42558;52.388;13.390;2023-02-19T05:19:51;100948.33;;;1.83;100.00
56681;BME280;42558;52.388;13.390;2023-02-19T05:22:19;100947.73;;;1.81;100.00
56681;BME280;42558;52.388;13.390;2023-02-19T05:24:47;100948.59;;;1.85;100.00
56681;BME280;42558;52.388;13.390;2023-02-19T05:27:16;100945.73;;;1.83;100.00
56681;BME280;42558;52.388;13.390;2023-02-19T05:29:44;100945.92;;;1.87;100.00
56681;BME280;42558;52.388;13.390;2023-02-19T05:32:13;100947.67;;;1.87;100.00
56681;BME280;42558;52.388;13.390;2023-02-19T05:34:41;100950.63;;;1.87;100.00
56681;BME280;42558;52.388;13.390;2023-02-19T05:37:10;100954.96;;;1.84;100.00
56681;BME280;42558;52.388;13.390;2023-02-19T05:39:38;100954.45;;;1.81;100.00
56681;BME280;42558;52.388;13.390;2023-02-19T05:42:08;100961.69;;;1.80;100.00
56681;BME280;42558;52.388;13.390;2023-02-19T05:44:42;100959.02;;;1.79;100.00
56681;BME280;42558;52.388;13.390;2023-02-19T05:47:12;100955.04;;;1.82;100.00
56681;BME280;42558;52.388;13.390;2023-02-19T05:49:41;100952.96;;;1.86;100.00
56681;BME280;42558;52.388;13.390;2023-02-19T05:52:11;100954.75;;;1.87;100.00
56681;BME280;42558;52.388;13.390;2023-02-19T05:54:41;100959.98;;;1.84;100.00
56681;BME280;42558;52.388;13.390;2023-02-19T05:57:11;100965.42;;;1.85;100.00
56681;BME280;42558;52.388;13.390;2023-02-19T05:59:40;100962.90;;;1.76;100.00
56681;BME280;42558;52.388;13.390;2023-02-19T06:02:10;100968.45;;;1.83;100.00
56681;BME280;42558;52.388;13.390;2023-02-19T06:04:40;100963.63;;;1.84;100.00
56681;BME280;42558;52.388;13.390;2023-02-19T06:07:10;100970.34;;;1.89;100.00
56681;BME280;42558;52.388;13.390;2023-02-19T06:09:40;100974.80;;;1.93;100.00
56681;BME280;42558;52.388;13.390;2023-02-19T06:12:12;100979.06;;;1.94;100.00
56681;BME280;42558;52.388;13.390;2023-02-19T06:14:45;100982.67;;;1.94;100.00
56681;BME280;42558;52.388;13.390;2023-02-19T06:17:15;100979.33;;;1.89;100.00
56681;BME280;42558;52.388;13.390;2023-02-19T06:19:45;100983.60;;;1.81;100.00
56681;BME280;42558;52.388;13.390;2023-02-19T06:22:15;100993.62;;;1.81;100.00
56681;BME280;42558;52.388;13.390;2023-02-19T06:24:46;100998.36;;;1.79;100.00
56681;BME280;42558;52.388;13.390;2023-02-19T06:27:17;100998.23;;;1.73;100.00
56681;BME280;42558;52.388;13.390;2023-02-19T06:29:47;100993.05;;;1.74;100.00
56681;BME280;42558;52.388;13.390;2023-02-19T06:32:17;100991.70;;;1.71;100.00
56681;BME280;42558;52.388;13.390;2023-02-19T06:34:47;100994.91;;;1.73;100.00
56681;BME280;42558;52.388;13.390;2023-02-19T06:37:17;101000.96;;;1.72;100.00
56681;BME280;42558;52.388;13.390;2023-02-19T06:39:46;101004.70;;;1.71;100.00
56681;BME280;42558;52.388;13.390;2023-02-19T06:42:16;100999.39;;;1.69;100.00
56681;BME280;42558;52.388;13.390;2023-02-19T06:44:47;100995.36;;;1.71;100.00
56681;BME280;42558;52.388;13.390;2023-02-19T06:47:17;101004.71;;;1.77;100.00
56681;BME280;42558;52.388;13.390;2023-02-19T06:49:47;101019.13;;;1.81;100.00
56681;BME280;42558;52.388;13.390;2023-02-19T06:52:17;101022.75;;;1.71;100.00
56681;BME280;42558;52.388;13.390;2023-02-19T06:54:47;101035.23;;;1.72;100.00
56681;BME280;42558;52.388;13.390;2023-02-19T06:57:17;101047.05;;;1.72;100.00
56681;BME280;42558;52.388;13.390;2023-02-19T06:59:47;101058.71;;;1.76;100.00
56681;BME280;42558;52.388;13.390;2023-02-19T07:02:17;101068.95;;;1.76;100.00
56681;BME280;42558;52.388;13.390;2023-02-19T07:04:47;101071.22;;;1.77;100.00
56681;BME280;42558;52.388;13.390;2023-02-19T07:07:17;101069.88;;;1.77;100.00
56681;BME280;42558;52.388;13.390;2023-02-19T07:09:46;101079.47;;;1.82;100.00
56681;BME280;42558;52.388;13.390;2023-02-19T07:12:16;101079.98;;;1.78;100.00
56681;BME280;42558;52.388;13.390;2023-02-19T07:14:46;101077.29;;;1.83;100.00
56681;BME280;42558;52.388;13.390;2023-02-19T07:17:16;101077.70;;;1.87;100.00
56681;BME280;42558;52.388;13.390;2023-02-19T07:19:46;101085.45;;;1.77;100.00
56681;BME280;42558;52.388;13.390;2023-02-19T07:22:16;101093.05;;;1.77;100.00
56681;BME280;42558;52.388;13.390;2023-02-19T07:24:46;101100.65;;;1.82;100.00
56681;BME280;42558;52.388;13.390;2023-02-19T07:27:16;101101.70;;;1.79;100.00
56681;BME280;42558;52.388;13.390;2023-02-19T07:29:46;101102.20;;;1.82;100.00
56681;BME280;42558;52.388;13.390;2023-02-19T07:32:16;101109.32;;;1.95;100.00
56681;BME280;42558;52.388;13.390;2023-02-19T07:34:46;101104.33;;;2.02;100.00
56681;BME280;42558;52.388;13.390;2023-02-19T07:37:16;101108.70;;;2.07;100.00
56681;BME280;42558;52.388;13.390;2023-02-19T07:39:46;101111.81;;;2.13;100.00
56681;BME280;42558;52.388;13.390;2023-02-19T07:42:16;101112.45;;;2.15;100.00
56681;BME280;42558;52.388;13.390;2023-02-19T07:44:45;101113.05;;;2.10;100.00
56681;BME280;42558;52.388;13.390;2023-02-19T07:47:15;101115.55;;;2.15;100.00
56681;BME280;42558;52.388;13.390;2023-02-19T07:49:45;101123.96;;;2.10;100.00
56681;BME280;42558;52.388;13.390;2023-02-19T07:52:13;101125.10;;;2.18;100.00
56681;BME280;42558;52.388;13.390;2023-02-19T07:54:42;101129.34;;;2.36;100.00
56681;BME280;42558;52.388;13.390;2023-02-19T07:57:10;101128.22;;;2.78;100.00
56681;BME280;42558;52.388;13.390;2023-02-19T07:59:39;101130.29;;;2.81;100.00
56681;BME280;42558;52.388;13.390;2023-02-19T08:02:19;101144.29;;;3.04;100.00
56681;BME280;42558;52.388;13.390;2023-02-19T08:05:07;101154.56;;;3.33;100.00
56681;BME280;42558;52.388;13.390;2023-02-19T08:07:37;101159.73;;;3.42;100.00
56681;BME280;42558;52.388;13.390;2023-02-19T08:10:07;101167.44;;;3.65;100.00
56681;BME280;42558;52.388;13.390;2023-02-19T08:12:58;101173.98;;;3.32;100.00
56681;BME280;42558;52.388;13.390;2023-02-19T08:18:43;101188.95;;;2.71;100.00
56681;BME280;42558;52.388;13.390;2023-02-19T08:21:14;101185.00;;;3.51;100.00
56681;BME280;42558;52.388;13.390;2023-02-19T08:23:46;101197.80;;;4.08;100.00
56681;BME280;42558;52.388;13.390;2023-02-19T08:26:19;101206.61;;;4.10;100.00
56681;BME280;42558;52.388;13.390;2023-02-19T08:28:49;101209.73;;;4.18;100.00
56681;BME280;42558;52.388;13.390;2023-02-19T08:31:19;101216.30;;;4.25;98.87
56681;BME280;42558;52.388;13.390;2023-02-19T08:33:49;101222.27;;;3.96;99.76
56681;BME280;42558;52.388;13.390;2023-02-19T08:36:19;101228.41;;;4.11;99.95
56681;BME280;42558;52.388;13.390;2023-02-19T08:38:49;101233.89;;;3.98;98.81
56681;BME280;42558;52.388;13.390;2023-02-19T08:41:19;101243.28;;;3.62;99.89
56681;BME280;42558;52.388;13.390;2023-02-19T08:43:49;101241.20;;;3.56;99.99
56681;BME280;42558;52.388;13.390;2023-02-19T08:46:19;101245.70;;;3.66;100.00
56681;BME280;42558;52.388;13.390;2023-02-19T08:48:50;101251.23;;;4.16;99.39
56681;BME280;42558;52.388;13.390;2023-02-19T08:51:20;101253.02;;;4.24;97.88
56681;BME280;42558;52.388;13.390;2023-02-19T08:53:50;101256.96;;;4.52;95.40
56681;BME280;42558;52.388;13.390;2023-02-19T08:56:20;101261.03;;;4.85;95.17
56681;BME280;42558;52.388;13.390;2023-02-19T08:58:50;101263.02;;;5.22;93.77
56681;BME280;42558;52.388;13.390;2023-02-19T09:01:19;101275.52;;;4.89;94.51
56681;BME280;42558;52.388;13.390;2023-02-19T09:03:49;101280.59;;;4.01;96.84
56681;BME280;42558;52.388;13.390;2023-02-19T09:06:20;101278.09;;;3.71;100.00
56681;BME280;42558;52.388;13.390;2023-02-19T09:08:50;101281.78;;;4.70;95.89
56681;BME280;42558;52.388;13.390;2023-02-19T09:11:20;101279.31;;;4.77;93.55
56681;BME280;42558;52.388;13.390;2023-02-19T09:13:48;101273.14;;;5.88;86.03
56681;BME280;42558;52.388;13.390;2023-02-19T09:16:16;101286.33;;;4.67;90.20
56681;BME280;42558;52.388;13.390;2023-02-19T09:18:45;101284.17;;;3.81;96.30
56681;BME280;42558;52.388;13.390;2023-02-19T09:21:13;101284.81;;;4.96;97.75
56681;BME280;42558;52.388;13.390;2023-02-19T09:23:42;101290.81;;;5.01;91.77
56681;BME280;42558;52.388;13.390;2023-02-19T09:26:10;101295.36;;;4.25;95.98
56681;BME280;42558;52.388;13.390;2023-02-19T09:28:42;101296.11;;;4.94;93.18
56681;BME280;42558;52.388;13.390;2023-02-19T09:31:13;101297.80;;;4.36;94.29
56681;BME280;42558;52.388;13.390;2023-02-19T09:33:46;101306.16;;;4.62;92.46
56681;BME280;42558;52.388;13.390;2023-02-19T09:36:17;101306.10;;;4.21;93.86
56681;BME280;42558;52.388;13.390;2023-02-19T09:38:47;101312.09;;;4.37;93.22
56681;BME280;42558;52.388;13.390;2023-02-19T09:41:30;101314.80;;;4.35;91.61
56681;BME280;42558;52.388;13.390;2023-02-19T09:44:03;101320.84;;;4.56;94.59
56681;BME280;42558;52.388;13.390;2023-02-19T09:46:41;101314.66;;;4.32;92.24
56681;BME280;42558;52.388;13.390;2023-02-19T09:49:17;101316.65;;;4.26;94.49
56681;BME280;42558;52.388;13.390;2023-02-19T09:55:14;101334.63;;;4.72;93.95
56681;BME280;42558;52.388;13.390;2023-02-19T09:57:46;101335.81;;;4.94;92.21
56681;BME280;42558;52.388;13.390;2023-02-19T10:00:24;101333.86;;;4.97;89.79
56681;BME280;42558;52.388;13.390;2023-02-19T10:03:08;101339.74;;;4.54;90.83
56681;BME280;42558;52.388;13.390;2023-02-19T10:05:40;101339.23;;;4.33;92.15
56681;BME280;42558;52.388;13.390;2023-02-19T10:08:19;101343.58;;;4.29;91.37
56681;BME280;42558;52.388;13.390;2023-02-19T10:10:51;101346.84;;;4.39;88.68
56681;BME280;42558;52.388;13.390;2023-02-19T10:13:33;101347.38;;;4.25;88.24
56681;BME280;42558;52.388;13.390;2023-02-19T10:16:08;101363.73;;;4.00;89.04
56681;BME280;42558;52.388;13.390;2023-02-19T10:18:45;101369.16;;;3.90;88.55
56681;BME280;42558;52.388;13.390;2023-02-19T10:21:25;101370.45;;;3.95;86.90
56681;BME280;42558;52.388;13.390;2023-02-19T10:24:00;101372.81;;;4.15;87.62
56681;BME280;42558;52.388;13.390;2023-02-19T10:26:32;101382.52;;;4.90;85.99
56681;BME280;42558;52.388;13.390;2023-02-19T10:29:05;101389.06;;;5.36;85.81
56681;BME280;42558;52.388;13.390;2023-02-19T10:31:35;101382.36;;;6.82;77.81
56681;BME280;42558;52.388;13.390;2023-02-19T10:34:19;101386.70;;;7.05;75.27
56681;BME280;42558;52.388;13.390;2023-02-19T10:36:51;101387.38;;;6.59;73.99
56681;BME280;42558;52.388;13.390;2023-02-19T10:41:52;101401.91;;;5.49;77.20
56681;BME280;42558;52.388;13.390;2023-02-19T10:44:41;101413.42;;;5.57;77.84
56681;BME280;42558;52.388;13.390;2023-02-19T10:47:20;101414.02;;;5.12;80.84
56681;BME280;42558;52.388;13.390;2023-02-19T10:49:56;101410.14;;;5.45;78.03
56681;BME280;42558;52.388;13.390;2023-02-19T10:52:32;101413.11;;;5.61;77.26
56681;BME280;42558;52.388;13.390;2023-02-19T10:55:36;101416.74;;;5.68;79.46
56681;BME280;42558;52.388;13.390;2023-02-19T10:58:25;101426.89;;;5.73;80.71
56681;BME280;42558;52.388;13.390;2023-02-19T11:03:50;101419.02;;;7.19;73.37
56681;BME280;42558;52.388;13.390;2023-02-19T11:06:25;101420.20;;;7.18;69.29
56681;BME280;42558;52.388;13.390;2023-02-19T11:08:59;101430.71;;;5.94;73.78
56681;BME280;42558;52.388;13.390;2023-02-19T11:11:35;101436.16;;;6.35;73.11
56681;BME280;42558;52.388;13.390;2023-02-19T11:14:22;101434.32;;;7.39;72.62
56681;BME280;42558;52.388;13.390;2023-02-19T11:16:56;101438.48;;;7.66;67.90
56681;BME280;42558;52.388;13.390;2023-02-19T11:19:43;101444.38;;;7.80;68.02
56681;BME280;42558;52.388;13.390;2023-02-19T11:22:28;101441.03;;;8.43;65.70
56681;BME280;42558;52.388;13.390;2023-02-19T11:28:18;101457.63;;;6.51;72.38
56681;BME280;42558;52.388;13.390;2023-02-19T11:30:50;101469.00;;;6.02;69.85
56681;BME280;42558;52.388;13.390;2023-02-19T11:38:53;101471.10;;;5.33;73.44
56681;BME280;42558;52.388;13.390;2023-02-19T11:41:52;101469.97;;;5.38;74.07
56681;BME280;42558;52.388;13.390;2023-02-19T11:50:32;101484.21;;;5.64;72.84
56681;BME280;42558;52.388;13.390;2023-02-19T11:53:31;101481.05;;;5.98;72.31
56681;BME280;42558;52.388;13.390;2023-02-19T11:56:26;101473.48;;;6.12;70.52
56681;BME280;42558;52.388;13.390;2023-02-19T12:11:14;101471.02;;;5.69;67.16
56681;BME280;42558;52.388;13.390;2023-02-19T12:19:35;101486.37;;;5.46;67.89
56681;BME280;42558;52.388;13.390;2023-02-19T12:22:30;101485.58;;;5.48;69.06
56681;BME280;42558;52.388;13.390;2023-02-19T12:28:55;101480.40;;;5.22;69.90
56681;BME280;42558;52.388;13.390;2023-02-19T12:31:59;101490.97;;;5.44;69.25
56681;BME280;42558;52.388;13.390;2023-02-19T12:35:20;101492.23;;;5.72;68.95
56681;BME280;42558;52.388;13.390;2023-02-19T12:41:31;101499.52;;;5.70;67.49
56681;BME280;42558;52.388;13.390;2023-02-19T12:44:18;101505.08;;;5.78;67.20
56681;BME280;42558;52.388;13.390;2023-02-19T12:46:57;101510.17;;;5.63;66.34
56681;BME280;42558;52.388;13.390;2023-02-19T12:50:18;101508.73;;;5.47;67.20
56681;BME280;42558;52.388;13.390;2023-02-19T12:53:30;101509.36;;;5.19;67.94
56681;BME280;42558;52.388;13.390;2023-02-19T12:56:35;101512.55;;;5.13;66.97
56681;BME280;42558;52.388;13.390;2023-02-19T13:05:00;101524.61;;;4.96;67.58
56681;BME280;42558;52.388;13.390;2023-02-19T13:10:37;101530.21;;;5.07;68.89
56681;BME280;42558;52.388;13.390;2023-02-19T13:13:24;101538.25;;;5.25;69.41
56681;BME280;42558;52.388;13.390;2023-02-19T13:16:05;101540.37;;;5.56;67.64
56681;BME280;42558;52.388;13.390;2023-02-19T13:18:49;101537.80;;;5.80;65.75
56681;BME280;42558;52.388;13.390;2023-02-19T13:21:24;101539.48;;;5.93;65.53
56681;BME280;42558;52.388;13.390;2023-02-19T13:24:24;101542.59;;;6.00;65.32
56681;BME280;42558;52.388;13.390;2023-02-19T13:29:56;101538.98;;;6.30;65.26
56681;BME280;42558;52.388;13.390;2023-02-19T13:38:20;101538.84;;;6.07;65.11
56681;BME280;42558;52.388;13.390;2023-02-19T13:40:58;101542.33;;;6.18;65.67
56681;BME280;42558;52.388;13.390;2023-02-19T13:43:32;101542.14;;;6.34;63.25
56681;BME280;42558;52.388;13.390;2023-02-19T13:46:10;101536.61;;;6.31;62.86
56681;BME280;42558;52.388;13.390;2023-02-19T13:48:42;101535.73;;;6.55;63.09
56681;BME280;42558;52.388;13.390;2023-02-19T14:09:46;101565.77;;;5.66;62.23
56681;BME280;42558;52.388;13.390;2023-02-19T14:12:20;101575.20;;;5.69;62.23
56681;BME280;42558;52.388;13.390;2023-02-19T14:14:54;101580.84;;;5.79;62.73
56681;BME280;42558;52.388;13.390;2023-02-19T14:17:43;101581.01;;;5.52;61.47
56681;BME280;42558;52.388;13.390;2023-02-19T14:36:58;101577.73;;;7.20;56.07
56681;BME280;42558;52.388;13.390;2023-02-19T14:39:35;101574.41;;;7.16;56.07
56681;BME280;42558;52.388;13.390;2023-02-19T14:42:23;101578.61;;;6.82;57.70
56681;BME280;42558;52.388;13.390;2023-02-19T14:45:06;101590.01;;;6.18;59.23
56681;BME280;42558;52.388;13.390;2023-02-19T14:47:36;101585.66;;;5.77;60.80
56681;BME280;42558;52.388;13.390;2023-02-19T14:50:27;101587.05;;;6.07;59.69
56681;BME280;42558;52.388;13.390;2023-02-19T14:53:02;101588.11;;;6.19;59.52
56681;BME280;42558;52.388;13.390;2023-02-19T14:55:37;101591.27;;;5.85;60.70
56681;BME280;42558;52.388;13.390;2023-02-19T14:58:27;101599.42;;;5.77;62.09
56681;BME280;42558;52.388;13.390;2023-02-19T15:00:59;101607.78;;;5.87;60.89
56681;BME280;42558;52.388;13.390;2023-02-19T15:03:32;101612.73;;;6.38;59.16
56681;BME280;42558;52.388;13.390;2023-02-19T15:06:12;101612.00;;;6.07;58.27
56681;BME280;42558;52.388;13.390;2023-02-19T15:08:56;101615.55;;;5.93;57.98
56681;BME280;42558;52.388;13.390;2023-02-19T15:11:30;101616.67;;;6.02;57.08
56681;BME280;42558;52.388;13.390;2023-02-19T15:14:04;101614.41;;;5.84;57.39
56681;BME280;42558;52.388;13.390;2023-02-19T15:16:36;101611.93;;;5.86;57.11
56681;BME280;42558;52.388;13.390;2023-02-19T15:19:09;101621.00;;;5.50;58.88
56681;BME280;42558;52.388;13.390;2023-02-19T15:21:46;101613.90;;;5.36;60.40
56681;BME280;42558;52.388;13.390;2023-02-19T15:24:18;101619.84;;;5.19;61.05
56681;BME280;42558;52.388;13.390;2023-02-19T15:26:52;101621.73;;;5.11;61.82
56681;BME280;42558;52.388;13.390;2023-02-19T15:29:26;101627.88;;;5.02;61.96
56681;BME280;42558;52.388;13.390;2023-02-19T15:31:59;101624.66;;;5.03;62.66
56681;BME280;42558;52.388;13.390;2023-02-19T15:34:31;101630.79;;;5.18;62.14
56681;BME280;42558;52.388;13.390;2023-02-19T15:37:05;101627.01;;;5.19;61.70
56681;BME280;42558;52.388;13.390;2023-02-19T15:39:44;101619.40;;;5.13;61.02